createdAt,value
2019-01-29T00:06:17.334Z,2.66
2019-01-29T00:08:45.755Z,2.62
2019-01-29T00:13:47.691Z,2.39
2019-01-29T00:16:16.122Z,2.31
2019-01-29T00:19:03.802Z,2.28
2019-01-29T00:21:32.222Z,1.98
2019-01-29T00:24:00.646Z,1.87
2019-01-29T00:26:29.166Z,1.64
2019-01-29T00:28:57.587Z,1.66
2019-01-29T00:31:26.163Z,1.79
2019-01-29T00:33:54.617Z,1.89
2019-01-29T00:36:23.039Z,2.01
2019-01-29T00:38:51.459Z,2.08
2019-01-29T00:41:19.930Z,2.14
2019-01-29T00:43:48.417Z,2.19
2019-01-29T00:46:16.886Z,2.17
2019-01-29T00:48:45.345Z,2.07
2019-01-29T00:51:13.767Z,2.30
2019-01-29T00:53:42.191Z,2.28
2019-01-29T00:56:10.708Z,2.32
2019-01-29T00:58:39.211Z,2.29
2019-01-29T01:01:07.971Z,2.26
2019-01-29T01:03:36.481Z,2.16
2019-01-29T01:06:05.171Z,2.31
2019-01-29T01:08:33.760Z,2.22
2019-01-29T01:11:02.623Z,2.21
2019-01-29T01:13:31.042Z,2.20
2019-01-29T01:15:59.532Z,2.27
2019-01-29T01:18:28.200Z,2.10
2019-01-29T01:20:57.324Z,2.18
2019-01-29T01:23:25.819Z,2.32
2019-01-29T01:25:54.395Z,2.19
2019-01-29T01:28:22.822Z,2.27
2019-01-29T01:30:51.238Z,2.16
2019-01-29T01:33:19.812Z,2.12
2019-01-29T01:35:48.298Z,2.17
2019-01-29T01:38:16.718Z,2.29
2019-01-29T01:40:45.162Z,2.40
2019-01-29T01:43:13.592Z,2.33
2019-01-29T01:45:42.082Z,2.19
2019-01-29T01:48:10.902Z,2.12
2019-01-29T01:50:39.328Z,2.20
2019-01-29T01:53:07.751Z,2.06
2019-01-29T01:55:36.202Z,2.02
2019-01-29T01:58:04.962Z,2.09
2019-01-29T02:00:33.457Z,2.06
2019-01-29T02:03:01.961Z,2.05
2019-01-29T02:05:30.374Z,1.98
2019-01-29T02:07:58.795Z,1.97
2019-01-29T02:10:29.186Z,2.01
2019-01-29T02:12:57.709Z,2.01
2019-01-29T02:15:26.468Z,1.99
2019-01-29T02:17:55.128Z,1.89
2019-01-29T02:20:23.681Z,1.86
2019-01-29T02:22:52.343Z,1.81
2019-01-29T02:25:20.827Z,1.85
2019-01-29T02:27:49.314Z,1.82
2019-01-29T02:30:20.077Z,1.87
2019-01-29T02:32:48.701Z,2.02
2019-01-29T02:35:17.460Z,2.20
2019-01-29T02:37:45.882Z,1.99
2019-01-29T02:40:19.630Z,1.95
2019-01-29T02:42:48.193Z,1.96
2019-01-29T02:45:17.944Z,1.95
2019-01-29T02:47:46.398Z,1.91
2019-01-29T02:50:16.763Z,1.91
2019-01-29T02:52:46.126Z,1.75
2019-01-29T02:55:15.312Z,1.69
2019-01-29T02:57:43.875Z,1.63
2019-01-29T03:00:21.275Z,1.52
2019-01-29T03:02:49.876Z,1.30
2019-01-29T03:05:19.122Z,1.09
2019-01-29T03:07:48.843Z,0.94
2019-01-29T03:10:19.868Z,0.90
2019-01-29T03:12:48.363Z,0.65
2019-01-29T03:15:19.562Z,0.54
2019-01-29T03:17:48.124Z,0.45
2019-01-29T03:20:17.283Z,0.32
2019-01-29T03:22:45.896Z,0.13
2019-01-29T03:25:14.657Z,0.03
2019-01-29T03:27:43.088Z,0.28
2019-01-29T03:30:17.391Z,0.31
2019-01-29T03:32:45.823Z,0.70
2019-01-29T03:35:14.680Z,0.79
2019-01-29T03:37:43.208Z,1.20
2019-01-29T03:40:14.630Z,1.43
2019-01-29T03:42:43.056Z,1.52
2019-01-29T03:45:15.980Z,1.63
2019-01-29T03:47:44.610Z,1.60
2019-01-29T03:50:15.867Z,1.47
2019-01-29T03:52:44.651Z,1.27
2019-01-29T03:55:13.214Z,1.19
2019-01-29T03:57:41.805Z,1.11
2019-01-29T04:00:16.106Z,1.12
2019-01-29T04:02:44.778Z,1.21
2019-01-29T04:05:13.268Z,1.25
2019-01-29T04:07:41.794Z,1.24
2019-01-29T04:10:15.584Z,1.02
2019-01-29T04:12:44.186Z,0.86
2019-01-29T04:15:14.984Z,0.70
2019-01-29T04:17:43.639Z,0.34
2019-01-29T04:20:15.305Z,0.25
2019-01-29T04:22:45.895Z,0.09
2019-01-29T04:25:15.210Z,0.24
2019-01-29T04:27:43.690Z,0.14
2019-01-29T04:30:15.102Z,-0.01
2019-01-29T04:32:43.530Z,-0.09
2019-01-29T04:35:12.105Z,-0.20
2019-01-29T04:37:40.565Z,-0.25
2019-01-29T04:40:12.029Z,-0.40
2019-01-29T04:42:40.549Z,-0.61
2019-01-29T04:45:11.812Z,-0.49
2019-01-29T04:47:40.313Z,-0.63
2019-01-29T04:50:14.526Z,-0.63
2019-01-29T04:52:43.293Z,-0.78
2019-01-29T04:55:14.253Z,-0.80
2019-01-29T04:57:42.703Z,-0.77
2019-01-29T05:00:17.177Z,-0.75
2019-01-29T05:02:45.708Z,-0.75
2019-01-29T05:05:14.627Z,-0.72
2019-01-29T05:07:43.198Z,-0.86
2019-01-29T05:10:13.862Z,-0.60
2019-01-29T05:12:42.312Z,-0.57
2019-01-29T05:15:16.116Z,-0.61
2019-01-29T05:17:44.722Z,-0.45
2019-01-29T05:20:23.097Z,-0.07
2019-01-29T05:22:51.785Z,-0.09
2019-01-29T05:25:20.409Z,0.01
2019-01-29T05:27:48.984Z,-0.02
2019-01-29T05:30:20.658Z,-0.24
2019-01-29T05:32:49.407Z,-0.19
2019-01-29T05:35:18.711Z,-0.39
2019-01-29T05:37:47.219Z,-0.33
2019-01-29T05:40:17.997Z,-0.56
2019-01-29T05:42:46.714Z,-0.75
2019-01-29T05:45:17.479Z,-0.61
2019-01-29T05:47:45.937Z,-0.54
2019-01-29T05:50:15.428Z,-0.41
2019-01-29T05:52:44.114Z,0.00
2019-01-29T05:55:14.374Z,0.03
2019-01-29T05:57:43.026Z,0.08
2019-01-29T06:00:18.191Z,0.03
2019-01-29T06:02:48.491Z,0.21
2019-01-29T06:05:17.682Z,0.06
2019-01-29T06:07:46.176Z,-0.08
2019-01-29T06:10:17.429Z,-0.12
2019-01-29T06:12:46.029Z,-0.18
2019-01-29T06:15:20.007Z,-0.21
2019-01-29T06:17:48.456Z,-0.28
2019-01-29T06:20:19.317Z,-0.47
2019-01-29T06:22:47.794Z,-0.49
2019-01-29T06:25:16.572Z,-0.69
2019-01-29T06:27:45.079Z,-0.62
2019-01-29T06:30:16.043Z,-0.92
2019-01-29T06:32:44.570Z,-0.74
2019-01-29T06:35:15.235Z,-0.89
2019-01-29T06:37:43.660Z,-0.68
2019-01-29T06:40:15.285Z,-0.56
2019-01-29T06:42:43.715Z,-0.45
2019-01-29T06:45:14.627Z,-0.54
2019-01-29T06:47:43.293Z,-0.75
2019-01-29T06:50:17.299Z,-0.77
2019-01-29T06:52:45.895Z,-0.73
2019-01-29T06:55:17.316Z,-0.73
2019-01-29T06:57:54.454Z,-0.72
2019-01-29T07:00:18.555Z,-0.56
2019-01-29T07:02:47.361Z,-0.79
2019-01-29T07:05:15.923Z,-0.80
2019-01-29T07:07:44.515Z,-0.86
2019-01-29T07:10:15.806Z,-0.75
2019-01-29T07:12:44.231Z,-0.90
2019-01-29T07:15:17.234Z,-0.77
2019-01-29T07:17:47.258Z,-0.77
2019-01-29T07:20:15.920Z,-0.73
2019-01-29T07:22:44.342Z,-0.46
2019-01-29T07:25:13.243Z,-0.14
2019-01-29T07:27:44.803Z,-0.08
2019-01-29T07:30:14.963Z,0.01
2019-01-29T07:32:43.486Z,0.06
2019-01-29T07:35:11.988Z,0.34
2019-01-29T07:37:40.408Z,0.56
2019-01-29T07:40:10.629Z,0.82
2019-01-29T07:42:39.622Z,0.84
2019-01-29T07:45:13.497Z,0.83
2019-01-29T07:47:41.947Z,0.94
2019-01-29T07:50:11.502Z,0.85
2019-01-29T07:52:39.992Z,0.96
2019-01-29T07:55:10.274Z,0.98
2019-01-29T07:57:38.694Z,1.02
2019-01-29T08:00:10.161Z,1.07
2019-01-29T08:02:38.758Z,1.18
2019-01-29T08:05:10.218Z,0.99
2019-01-29T08:07:38.875Z,1.11
2019-01-29T08:10:17.819Z,1.22
2019-01-29T08:12:46.279Z,1.28
2019-01-29T08:15:22.037Z,1.29
2019-01-29T08:17:50.727Z,1.23
2019-01-29T08:20:19.486Z,1.30
2019-01-29T08:22:48.215Z,1.33
2019-01-29T08:25:16.706Z,1.38
2019-01-29T08:27:45.202Z,1.48
2019-01-29T08:30:15.591Z,1.56
2019-01-29T08:32:44.235Z,1.57
2019-01-29T08:35:16.992Z,1.60
2019-01-29T08:37:45.656Z,1.57
2019-01-29T08:40:15.517Z,1.63
2019-01-29T08:42:43.935Z,1.64
2019-01-29T08:45:14.901Z,1.67
2019-01-29T08:47:43.357Z,1.74
2019-01-29T08:50:24.004Z,1.84
2019-01-29T08:52:52.426Z,1.83
2019-01-29T08:55:21.177Z,1.97
2019-01-29T08:57:49.805Z,1.99
2019-01-29T09:00:22.990Z,2.03
2019-01-29T09:02:51.579Z,2.07
2019-01-29T09:05:20.584Z,2.11
2019-01-29T09:07:49.067Z,2.02
2019-01-29T09:10:20.543Z,2.10
2019-01-29T09:12:49.651Z,2.23
2019-01-29T09:15:22.699Z,2.37
2019-01-29T09:17:51.131Z,2.42
2019-01-29T09:20:22.012Z,2.40
2019-01-29T09:22:50.615Z,2.51
2019-01-29T09:25:22.498Z,2.57
2019-01-29T09:27:49.950Z,2.62
2019-01-29T09:30:20.314Z,2.68
2019-01-29T09:32:48.901Z,2.71
2019-01-29T09:35:17.487Z,2.73
2019-01-29T09:37:46.059Z,2.74
2019-01-29T09:40:22.018Z,2.73
2019-01-29T09:42:50.785Z,2.79
2019-01-29T09:45:20.356Z,2.79
2019-01-29T09:47:48.960Z,2.77
2019-01-29T09:50:22.679Z,2.68
2019-01-29T09:52:52.043Z,2.89
2019-01-29T09:55:29.598Z,2.82
2019-01-29T09:57:54.654Z,2.84
2019-01-29T10:00:28.559Z,2.85
2019-01-29T10:02:57.002Z,2.88
2019-01-29T10:05:25.763Z,2.88
2019-01-29T10:07:55.770Z,2.98
2019-01-29T10:10:24.455Z,3.07
2019-01-29T10:12:53.351Z,3.12
2019-01-29T10:15:24.817Z,3.17
2019-01-29T10:17:53.803Z,3.16
2019-01-29T10:20:22.460Z,3.27
2019-01-29T10:22:51.019Z,3.37
2019-01-29T10:25:20.164Z,3.66
2019-01-29T10:27:48.589Z,3.50
2019-01-29T10:30:22.456Z,3.43
2019-01-29T10:32:50.967Z,3.43
2019-01-29T10:35:21.952Z,3.50
2019-01-29T10:37:50.518Z,3.45
2019-01-29T10:40:24.607Z,3.71
2019-01-29T10:42:53.466Z,3.55
2019-01-29T10:45:22.826Z,3.58
2019-01-29T10:47:51.794Z,3.64
2019-01-29T10:50:22.894Z,3.68
2019-01-29T10:52:51.752Z,4.01
2019-01-29T10:55:20.496Z,3.92
2019-01-29T10:57:49.367Z,3.83
2019-01-29T11:00:20.719Z,3.70
2019-01-29T11:02:49.615Z,3.71
2019-01-29T11:05:19.971Z,3.70
2019-01-29T11:07:48.535Z,3.71
2019-01-29T11:10:19.016Z,3.83
2019-01-29T11:12:47.510Z,3.84
2019-01-29T11:15:18.873Z,3.87
2019-01-29T11:17:47.567Z,3.89
2019-01-29T11:20:18.371Z,3.93
2019-01-29T11:22:46.861Z,3.85
2019-01-29T11:25:18.962Z,3.91
2019-01-29T11:27:47.631Z,3.99
2019-01-29T11:30:21.906Z,4.03
2019-01-29T11:32:50.621Z,3.97
2019-01-29T11:35:19.233Z,4.03
2019-01-29T11:37:47.716Z,4.16
2019-01-29T11:40:21.789Z,4.35
2019-01-29T11:42:50.286Z,4.54
2019-01-29T11:45:24.319Z,4.48
2019-01-29T11:47:52.812Z,4.44
2019-01-29T11:50:21.303Z,4.36
2019-01-29T11:52:49.731Z,4.29
2019-01-29T11:55:18.793Z,4.71
2019-01-29T11:57:47.198Z,4.39
2019-01-29T12:00:20.462Z,4.37
2019-01-29T12:02:49.334Z,4.47
2019-01-29T12:05:18.092Z,4.32
2019-01-29T12:07:46.582Z,4.37
2019-01-29T12:10:15.408Z,4.63
2019-01-29T12:12:43.845Z,4.40
2019-01-29T12:15:17.806Z,4.42
2019-01-29T12:17:46.323Z,4.34
2019-01-29T12:20:17.083Z,4.45
2019-01-29T12:22:45.844Z,4.48
2019-01-29T12:25:14.778Z,4.50
2019-01-29T12:27:43.272Z,4.72
2019-01-29T12:30:51.637Z,4.54
2019-01-29T12:33:39.379Z,4.75
2019-01-29T12:36:27.159Z,4.87
2019-01-29T12:38:55.584Z,4.49
2019-01-29T12:41:43.356Z,4.66
2019-01-29T12:44:11.786Z,4.68
2019-01-29T12:46:40.286Z,4.67
2019-01-29T12:49:28.072Z,4.59
2019-01-29T12:55:44.791Z,4.64
2019-01-29T12:58:32.402Z,4.82
2019-01-29T13:06:09.953Z,4.75
2019-01-29T13:08:38.428Z,4.79
2019-01-29T13:11:46.777Z,4.82
2019-01-29T13:14:15.222Z,4.65
2019-01-29T13:16:43.643Z,4.87
2019-01-29T13:19:12.070Z,4.88
2019-01-29T13:22:00.098Z,4.87
2019-01-29T13:24:28.518Z,4.78
2019-01-29T13:26:56.937Z,4.86
2019-01-29T13:31:59.332Z,4.80
2019-01-29T13:34:34.678Z,4.74
2019-01-29T13:37:22.419Z,4.66
2019-01-29T13:40:10.425Z,4.66
2019-01-29T13:42:58.162Z,4.60
2019-01-29T13:51:35.120Z,4.62
2019-01-29T13:54:03.562Z,4.75
2019-01-29T13:56:38.745Z,4.72
2019-01-29T13:59:02.132Z,4.79
2019-01-29T14:01:30.590Z,4.59
2019-01-29T14:04:05.994Z,4.60
2019-01-29T14:06:29.152Z,4.77
2019-01-29T14:08:57.600Z,4.77
2019-01-29T14:11:45.283Z,4.81
2019-01-29T14:14:13.725Z,4.95
2019-01-29T14:16:42.147Z,4.78
2019-01-29T14:19:29.859Z,4.74
2019-01-29T14:21:58.282Z,4.58
2019-01-29T14:24:26.702Z,4.65
2019-01-29T14:29:29.614Z,4.86
2019-01-29T14:31:58.092Z,4.61
2019-01-29T14:37:00.828Z,4.52
2019-01-29T14:40:09.196Z,4.50
2019-01-29T14:42:37.619Z,4.53
2019-01-29T14:45:45.987Z,4.42
2019-01-29T14:48:14.410Z,4.30
2019-01-29T14:50:42.826Z,4.27
2019-01-29T14:53:30.539Z,4.24
2019-01-29T14:56:18.275Z,4.21
2019-01-29T14:59:26.657Z,4.28
2019-01-29T15:02:14.269Z,4.20
2019-01-29T15:04:42.744Z,4.14
2019-01-29T15:07:11.178Z,4.24
2019-01-29T15:09:39.599Z,4.31
2019-01-29T15:12:08.085Z,4.20
2019-01-29T15:14:36.550Z,4.37
2019-01-29T15:17:44.942Z,4.31
2019-01-29T15:20:53.296Z,4.25
2019-01-29T15:25:56.270Z,4.20
2019-01-29T15:29:04.609Z,4.01
2019-01-29T15:31:33.132Z,4.07
2019-01-29T15:34:01.556Z,4.04
2019-01-29T15:36:29.975Z,4.02
2019-01-29T15:41:38.059Z,3.92
2019-01-29T15:44:25.795Z,3.88
2019-01-29T15:49:47.034Z,3.87
2019-01-29T15:52:15.493Z,3.80
2019-01-29T15:54:43.914Z,3.86
2019-01-29T15:57:31.686Z,3.83
2019-01-29T16:00:00.199Z,3.81
2019-01-29T16:02:28.607Z,3.69
2019-01-29T16:04:57.055Z,3.67
2019-01-29T16:07:25.475Z,3.82
2019-01-29T16:09:53.961Z,3.60
2019-01-29T16:12:22.414Z,3.60
2019-01-29T16:14:50.836Z,3.89
2019-01-29T16:20:46.708Z,3.53
2019-01-29T16:23:34.462Z,3.53
2019-01-29T16:28:37.409Z,3.31
2019-01-29T16:31:25.338Z,3.13
2019-01-29T16:33:53.786Z,3.14
2019-01-29T16:36:41.743Z,3.10
2019-01-29T16:39:50.079Z,3.11
2019-01-29T16:42:18.543Z,3.14
2019-01-29T16:44:46.966Z,3.07
2019-01-29T16:47:15.399Z,3.03
2019-01-29T16:49:43.846Z,2.93
2019-01-29T16:52:31.458Z,2.95
2019-01-29T16:57:33.884Z,3.03
2019-01-29T17:00:02.335Z,2.98
2019-01-29T17:02:30.754Z,3.01
2019-01-29T17:04:59.175Z,3.01
2019-01-29T17:07:27.629Z,3.08
2019-01-29T17:10:15.372Z,3.08
2019-01-29T17:13:03.142Z,3.06
2019-01-29T17:16:11.496Z,3.04
2019-01-29T17:18:39.946Z,3.03
2019-01-29T17:21:27.686Z,2.96
2019-01-29T17:26:31.108Z,2.70
2019-01-29T17:28:59.980Z,2.63
2019-01-29T17:31:28.398Z,2.51
2019-01-29T17:33:56.838Z,2.50
2019-01-29T17:36:25.343Z,2.46
2019-01-29T17:38:53.764Z,2.38
2019-01-29T17:41:22.188Z,2.24
2019-01-29T17:46:24.603Z,2.04
2019-01-29T17:48:53.103Z,1.93
2019-01-29T17:51:21.526Z,1.89
2019-01-29T17:53:49.943Z,1.82
2019-01-29T17:58:52.378Z,1.55
2019-01-29T18:01:20.798Z,1.56
2019-01-29T18:03:49.255Z,1.55
2019-01-29T18:06:36.996Z,1.48
2019-01-29T18:09:45.700Z,1.38
2019-01-29T18:12:14.140Z,1.36
2019-01-29T18:15:01.791Z,1.36
2019-01-29T18:17:49.424Z,1.37
2019-01-29T18:20:37.292Z,1.33
2019-01-29T18:23:45.631Z,1.30
2019-01-29T18:28:48.074Z,1.30
2019-01-29T18:31:16.518Z,1.29
2019-01-29T18:34:04.210Z,1.30
2019-01-29T18:36:32.649Z,1.26
2019-01-29T18:39:20.328Z,1.26
2019-01-29T18:41:48.865Z,1.26
2019-01-29T18:47:10.517Z,1.19
2019-01-29T18:49:58.343Z,1.13
2019-01-29T18:52:26.863Z,1.11
2019-01-29T18:55:14.695Z,1.13
2019-01-29T18:58:23.086Z,1.09
2019-01-29T19:03:44.651Z,1.05
2019-01-29T19:06:53.478Z,1.04
2019-01-29T19:12:49.699Z,1.02
2019-01-29T19:18:44.306Z,1.16
2019-01-29T19:21:12.849Z,1.19
2019-01-29T19:23:41.472Z,1.17
2019-01-29T19:26:10.057Z,1.13
2019-01-29T19:28:57.862Z,1.18
2019-01-29T19:32:06.281Z,1.13
2019-01-29T19:34:54.007Z,1.14
2019-01-29T19:40:57.206Z,1.07
2019-01-29T19:46:32.621Z,1.00
2019-01-29T19:55:23.508Z,0.94
2019-01-29T20:03:45.988Z,0.87
2019-01-29T20:06:54.492Z,0.84
2019-01-29T20:09:43.183Z,0.83
2019-01-29T20:12:31.037Z,0.88
2019-01-29T20:15:18.691Z,0.87
2019-01-29T20:18:27.323Z,0.93
2019-01-29T20:21:15.109Z,0.91
2019-01-29T20:24:02.828Z,0.91
2019-01-29T20:32:33.184Z,0.87
2019-01-29T20:35:21.046Z,0.89
2019-01-29T20:37:49.649Z,0.88
2019-01-29T20:41:00.790Z,0.93
2019-01-29T20:43:48.569Z,0.92
2019-01-29T20:46:36.421Z,0.95
2019-01-29T20:52:32.390Z,0.95
2019-01-29T20:55:20.091Z,0.95
2019-01-29T20:58:28.525Z,1.01
2019-01-29T21:01:16.307Z,0.95
2019-01-29T21:06:37.769Z,0.95
2019-01-29T21:09:46.218Z,0.96
2019-01-29T21:12:33.875Z,0.92
2019-01-29T21:15:21.705Z,0.93
2019-01-29T21:18:09.482Z,0.93
2019-01-29T21:20:57.471Z,0.91
2019-01-29T21:23:49.046Z,0.88
2019-01-29T21:29:10.767Z,0.89
2019-01-29T21:31:39.329Z,0.85
2019-01-29T21:34:27.104Z,0.87
2019-01-29T21:37:15.027Z,0.90
2019-01-29T21:39:43.477Z,0.90
2019-01-29T21:42:11.887Z,0.92
2019-01-29T21:47:14.318Z,0.85
2019-01-29T21:49:42.846Z,0.86
2019-01-29T21:52:11.358Z,0.94
2019-01-29T21:54:39.854Z,0.92
2019-01-29T22:00:01.244Z,0.70
2019-01-29T22:05:03.350Z,0.70
2019-01-29T22:07:31.774Z,0.62
2019-01-29T22:10:00.303Z,0.65
2019-01-29T22:12:47.912Z,0.64
2019-01-29T22:15:56.377Z,0.58
2019-01-29T22:18:24.804Z,0.48
2019-01-29T22:20:53.230Z,0.46
2019-01-29T22:23:21.689Z,0.42
2019-01-29T22:26:09.429Z,0.45
2019-01-29T22:31:12.399Z,0.42
2019-01-29T22:33:40.847Z,0.40
2019-01-29T22:36:28.582Z,0.64
2019-01-29T22:39:16.278Z,0.53
2019-01-29T22:41:44.698Z,0.51
2019-01-29T22:44:13.119Z,0.46
2019-01-29T22:46:41.566Z,0.53
2019-01-29T22:49:09.984Z,0.56
2019-01-29T22:51:38.402Z,0.63
2019-01-29T22:54:47.081Z,0.61
2019-01-29T22:57:15.608Z,0.58
2019-01-29T22:59:43.993Z,0.56
2019-01-29T23:02:31.647Z,0.51
2019-01-29T23:05:00.306Z,0.55
2019-01-29T23:07:49.464Z,0.57
2019-01-29T23:10:57.801Z,0.54
2019-01-29T23:16:19.208Z,0.56
2019-01-29T23:19:06.926Z,0.52
2019-01-29T23:21:35.414Z,0.58
2019-01-29T23:29:32.511Z,0.65
2019-01-29T23:32:00.930Z,0.70
2019-01-29T23:34:29.422Z,0.52
2019-01-29T23:37:17.163Z,0.57
2019-01-29T23:42:19.910Z,0.45
2019-01-29T23:47:42.202Z,0.37
2019-01-29T23:50:50.572Z,0.41
2019-01-29T23:53:18.994Z,0.47
2019-01-29T23:55:47.410Z,0.57
2019-01-29T23:58:15.866Z,0.54
